Time;durP1;ratioP1;P1;durP2;ratioP2;P2;SDS_P1;SDS_P2;PMS_P1;PMS_P2;Temp;Humidity;BMP_temperature;BMP_pressure;BME280_temperature;BME280_humidity;BME280_pressure;Samples;Min_cycle;Max_cycle;Signal;HPM_P1;HPM_P2
2022/03/09 00:02:50;;;;;;;15.68;10.38;;;7.30;99.90;;;;;;1936365;74;21180;-86
2022/03/09 00:05:42;;;;;;;15.08;10.10;;;7.30;99.90;;;;;;1883742;75;21105;-85
2022/03/09 00:08:34;;;;;;;16.37;11.15;;;7.20;99.90;;;;;;1902343;75;21064;-86
2022/03/09 00:11:25;;;;;;;15.48;11.57;;;7.20;99.90;;;;;;1883797;75;21111;-85
2022/03/09 00:14:17;;;;;;;14.18;10.45;;;7.30;99.90;;;;;;1903789;75;21077;-85
2022/03/09 00:19:48;;;;;;;15.58;11.00;;;7.30;99.90;;;;;;1942347;72;22253;-84
2022/03/09 00:22:57;;;;;;;14.15;10.63;;;7.30;99.90;;;;;;1899329;75;21108;-86
2022/03/09 00:25:51;;;;;;;19.10;11.20;;;7.40;99.90;;;;;;1883335;75;21098;-87
2022/03/09 00:28:44;;;;;;;15.23;11.90;;;7.40;99.90;;;;;;1893244;75;21176;-85
2022/03/09 00:34:15;;;;;;;14.98;10.93;;;7.40;99.90;;;;;;1942746;72;22323;-84
2022/03/09 00:40:07;;;;;;;15.18;11.20;;;7.50;99.90;;;;;;1946138;72;22096;-86
2022/03/09 00:43:17;;;;;;;19.00;12.07;;;7.50;99.90;;;;;;1875790;75;21087;-86
2022/03/09 00:46:09;;;;;;;15.70;11.48;;;7.40;99.90;;;;;;1884681;75;21055;-85
2022/03/09 00:49:02;;;;;;;14.33;11.15;;;7.40;99.90;;;;;;1874103;75;21063;-85
2022/03/09 00:51:53;;;;;;;14.20;10.35;;;7.40;99.90;;;;;;1879663;75;21055;-85
2022/03/09 00:54:47;;;;;;;12.90;10.60;;;7.40;99.90;;;;;;1873150;76;21522;-85
2022/03/09 00:57:39;;;;;;;14.78;10.15;;;7.50;99.90;;;;;;1873231;76;21566;-86
2022/03/09 01:00:31;;;;;;;14.15;10.48;;;7.50;99.90;;;;;;1873052;76;21084;-88
2022/03/09 01:03:22;;;;;;;19.17;11.25;;;7.40;99.90;;;;;;1881754;75;21094;-88
2022/03/09 01:06:15;;;;;;;15.43;12.10;;;7.40;99.90;;;;;;1883914;75;21176;-87
2022/03/09 01:14:24;;;;;;;14.35;11.03;;;7.30;99.90;;;;;;1935576;72;22909;-83
2022/03/09 01:17:34;;;;;;;14.10;10.95;;;7.30;99.90;;;;;;1846901;77;21156;-85
2022/03/09 01:29:03;;;;;;;16.60;10.75;;;7.40;99.90;;;;;;1935201;72;22247;-86
2022/03/09 01:32:15;;;;;;;16.25;11.70;;;7.30;99.90;;;;;;1898314;75;21088;-86
2022/03/09 01:35:08;;;;;;;13.35;10.80;;;7.30;99.90;;;;;;1886841;75;21051;-85
2022/03/09 01:40:44;;;;;;;19.27;11.97;;;7.10;99.90;;;;;;1950210;72;22260;-86
2022/03/09 01:44:09;;;;;;;15.55;11.35;;;7.10;99.90;;;;;;1914915;75;21068;-86
2022/03/09 01:49:40;;;;;;;14.25;11.20;;;7.00;99.90;;;;;;1958318;72;22104;-84
2022/03/09 01:52:50;;;;;;;16.25;11.53;;;7.10;99.90;;;;;;1891791;75;21088;-85
2022/03/09 01:55:43;;;;;;;48.98;33.45;;;7.10;99.90;;;;;;1905409;75;21480;-85
2022/03/09 02:01:27;;;;;;;89.77;63.55;;;7.20;99.90;;;;;;1952656;72;22288;-86
2022/03/09 02:04:41;;;;;;;50.90;36.20;;;7.20;99.90;;;;;;1917981;75;21438;-86
2022/03/09 02:10:12;;;;;;;22.90;15.53;;;7.20;99.90;;;;;;1963865;72;22139;-86
2022/03/09 02:13:22;;;;;;;22.17;14.75;;;7.20;99.90;;;;;;1917767;75;21087;-85
2022/03/09 02:19:03;;;;;;;21.42;16.00;;;7.20;99.90;;;;;;1953711;72;22138;-88
2022/03/09 02:22:15;;;;;;;27.77;18.25;;;7.30;99.90;;;;;;1939477;73;21024;-87
2022/03/09 02:25:10;;;;;;;23.40;16.20;;;7.30;99.90;;;;;;1905364;75;21103;-87
2022/03/09 02:28:03;;;;;;;21.80;16.07;;;7.30;99.90;;;;;;1905359;75;21095;-85
2022/03/09 02:33:38;;;;;;;22.00;14.28;;;7.30;99.90;;;;;;1954214;72;22123;-86
2022/03/09 02:36:48;;;;;;;19.00;12.03;;;7.30;99.90;;;;;;1848683;77;21179;-85
2022/03/09 02:39:40;;;;;;;16.23;11.90;;;7.30;99.90;;;;;;1901289;75;21094;-85
2022/03/09 02:42:33;;;;;;;14.47;11.73;;;7.20;99.90;;;;;;1904868;75;21055;-86
2022/03/09 02:45:24;;;;;;;15.60;12.43;;;7.20;99.90;;;;;;1888999;75;21144;-85
2022/03/09 02:48:17;;;;;;;18.15;12.95;;;7.20;99.90;;;;;;1885912;75;21106;-86
2022/03/09 02:56:39;;;;;;;20.45;15.20;;;7.10;99.90;;;;;;1947135;72;22221;-86
2022/03/09 02:59:49;;;;;;;20.17;14.13;;;7.10;99.90;;;;;;1925056;73;21125;-85
2022/03/09 03:02:41;;;;;;;20.68;14.20;;;7.00;99.90;;;;;;1920411;73;21035;-85
2022/03/09 03:05:33;;;;;;;19.75;14.83;;;7.00;99.90;;;;;;1917819;75;21109;-86
2022/03/09 03:08:25;;;;;;;19.12;14.40;;;7.00;99.90;;;;;;1928888;73;21058;-86
2022/03/09 03:11:17;;;;;;;19.20;14.15;;;7.00;99.90;;;;;;1923611;73;21188;-86
2022/03/09 03:14:11;;;;;;;20.15;14.00;;;6.90;99.90;;;;;;1918005;73;21099;-86
2022/03/09 03:19:42;;;;;;;19.23;14.30;;;6.80;99.90;;;;;;1948645;72;22245;-84
2022/03/09 03:22:52;;;;;;;19.98;14.35;;;6.80;99.90;;;;;;1902514;75;21105;-85
2022/03/09 03:25:44;;;;;;;18.62;13.75;;;6.80;99.90;;;;;;1895030;75;21077;-85
2022/03/09 03:28:36;;;;;;;19.73;14.98;;;6.80;99.90;;;;;;1892480;75;21557;-85
2022/03/09 03:34:06;;;;;;;22.75;15.58;;;6.60;99.90;;;;;;1950415;72;22315;-85
2022/03/09 03:37:15;;;;;;;20.62;14.45;;;6.60;99.90;;;;;;1895617;75;21503;-87
2022/03/09 03:40:12;;;;;;;20.23;14.93;;;6.50;99.90;;;;;;1895529;75;21167;-88
2022/03/09 03:43:04;;;;;;;21.02;14.95;;;6.50;99.90;;;;;;1914093;75;21094;-86
2022/03/09 03:48:36;;;;;;;21.17;15.50;;;6.30;99.90;;;;;;1952337;72;22238;-88
2022/03/09 03:51:46;;;;;;;22.90;15.75;;;6.30;99.90;;;;;;1823040;77;21609;-86
2022/03/09 03:54:37;;;;;;;20.85;15.25;;;6.30;99.90;;;;;;1818572;78;21109;-88
2022/03/09 03:57:29;;;;;;;21.05;15.78;;;6.20;99.90;;;;;;1893632;75;21055;-86
2022/03/09 04:00:23;;;;;;;22.77;15.38;;;6.10;99.90;;;;;;1883859;75;21056;-87
2022/03/09 04:03:14;;;;;;;22.62;15.35;;;6.00;99.90;;;;;;1896290;75;21187;-87
2022/03/09 04:06:06;;;;;;;21.57;15.53;;;6.00;99.90;;;;;;1893819;75;21059;-87
2022/03/09 04:09:00;;;;;;;19.52;15.10;;;6.00;99.90;;;;;;1866291;76;21137;-86
2022/03/09 04:14:43;;;;;;;20.15;15.65;;;5.90;99.90;;;;;;1967915;72;22173;-86
2022/03/09 04:17:53;;;;;;;20.90;15.70;;;5.90;99.90;;;;;;1924475;73;21543;-88
2022/03/09 04:20:45;;;;;;;21.07;15.72;;;6.00;99.90;;;;;;1929891;73;21056;-87
2022/03/09 04:39:38;;;;;;;21.07;14.18;;;5.70;99.90;;;;;;1955415;72;22090;-87
2022/03/09 04:45:28;;;;;;;22.00;14.78;;;5.40;99.90;;;;;;1936314;72;22265;-88
2022/03/09 04:48:37;;;;;;;21.20;14.73;;;5.40;99.90;;;;;;1935326;73;21112;-86
2022/03/09 04:51:29;;;;;;;20.23;14.60;;;5.40;99.90;;;;;;1922821;74;21115;-87
2022/03/09 04:54:20;;;;;;;21.30;15.45;;;5.30;99.90;;;;;;1919864;74;21123;-87
2022/03/09 04:57:12;;;;;;;21.90;14.73;;;5.30;99.90;;;;;;1905492;75;21036;-87
2022/03/09 05:00:05;;;;;;;22.53;15.50;;;5.20;99.90;;;;;;1905574;75;21207;-87
2022/03/09 05:02:56;;;;;;;20.68;14.63;;;5.20;99.90;;;;;;1854405;77;21059;-87
2022/03/09 05:05:48;;;;;;;19.60;14.55;;;5.20;99.90;;;;;;1905433;75;21087;-86
2022/03/09 05:08:40;;;;;;;25.27;14.58;;;5.30;99.90;;;;;;1905447;75;21102;-87
2022/03/09 05:11:32;;;;;;;21.33;14.85;;;5.30;99.90;;;;;;1855940;76;21088;-87
2022/03/09 05:14:24;;;;;;;21.62;14.98;;;5.30;99.90;;;;;;1865013;77;21096;-86
2022/03/09 05:19:58;;;;;;;19.05;14.80;;;5.20;99.90;;;;;;1964159;72;22164;-88
2022/03/09 05:23:08;;;;;;;23.70;14.43;;;5.30;99.90;;;;;;1906394;75;21032;-87
2022/03/09 05:28:44;;;;;;;20.65;14.33;;;5.30;99.90;;;;;;1945089;72;22641;-88
2022/03/09 05:31:54;;;;;;;21.80;15.00;;;5.30;99.90;;;;;;1896707;75;21094;-87
2022/03/09 05:34:49;;;;;;;19.70;14.75;;;5.30;99.90;;;;;;1884874;76;21633;-87
2022/03/09 05:40:19;;;;;;;21.10;14.45;;;5.30;99.90;;;;;;1944258;72;22222;-87
2022/03/09 05:43:29;;;;;;;20.92;14.68;;;5.40;99.90;;;;;;1896282;75;21096;-88
2022/03/09 05:46:20;;;;;;;20.20;13.95;;;5.30;99.90;;;;;;1886936;75;21103;-86
2022/03/09 05:51:53;;;;;;;21.82;13.93;;;5.40;99.90;;;;;;1951244;72;22214;-88
2022/03/09 05:55:03;;;;;;;21.27;14.15;;;5.30;99.90;;;;;;1911378;75;21144;-87
2022/03/09 06:03:52;;;;;;;23.38;14.65;;;5.30;99.90;;;;;;1941988;72;22098;-87
2022/03/09 06:09:44;;;;;;;20.25;13.85;;;5.40;99.90;;;;;;1940143;72;22166;-88
2022/03/09 06:12:55;;;;;;;20.45;13.85;;;5.30;99.90;;;;;;1885577;75;21216;-87
2022/03/09 06:15:48;;;;;;;20.00;14.73;;;5.40;99.90;;;;;;1835295;78;21122;-87
2022/03/09 06:21:22;;;;;;;21.65;14.93;;;5.50;99.90;;;;;;1948070;72;22638;-87
2022/03/09 06:24:33;;;;;;;20.75;14.70;;;5.40;99.90;;;;;;1903024;75;21120;-87
2022/03/09 06:27:28;;;;;;;20.55;14.13;;;5.50;99.90;;;;;;1885555;75;21056;-87
2022/03/09 06:30:20;;;;;;;20.85;14.18;;;5.50;99.90;;;;;;1885101;75;21114;-83
2022/03/09 06:33:11;;;;;;;21.68;14.47;;;5.40;99.90;;;;;;1882588;75;21051;-83
2022/03/09 06:36:06;;;;;;;22.27;15.00;;;5.50;99.90;;;;;;1893115;75;21118;-83
2022/03/09 06:38:57;;;;;;;20.60;14.28;;;5.50;99.90;;;;;;1879196;75;21137;-84
2022/03/09 06:41:50;;;;;;;20.95;14.65;;;5.50;99.90;;;;;;1893062;75;21092;-84
2022/03/09 06:44:42;;;;;;;20.65;14.28;;;5.50;99.90;;;;;;1890813;75;21057;-85
2022/03/09 06:47:35;;;;;;;18.87;13.68;;;5.50;99.90;;;;;;1892454;75;21223;-77
2022/03/09 06:50:27;;;;;;;20.20;13.80;;;5.50;99.90;;;;;;1902427;75;21059;-77
2022/03/09 06:53:19;;;;;;;26.05;14.05;;;5.50;99.90;;;;;;1901278;75;21082;-77
2022/03/09 06:58:49;;;;;;;18.65;13.93;;;5.50;99.90;;;;;;1955219;72;22133;-77
2022/03/09 07:02:00;;;;;;;21.07;14.80;;;5.50;99.90;;;;;;1932448;73;21116;-77
2022/03/09 07:04:51;;;;;;;21.80;14.05;;;5.60;99.90;;;;;;1917564;75;21580;-83
2022/03/09 07:07:43;;;;;;;23.57;14.03;;;5.60;99.90;;;;;;1917399;75;21133;-83
2022/03/09 07:10:35;;;;;;;19.92;13.93;;;5.60;99.90;;;;;;1917612;75;21121;-83
2022/03/09 07:13:26;;;;;;;19.32;14.38;;;5.60;99.90;;;;;;1935696;73;21058;-83
2022/03/09 07:16:18;;;;;;;22.35;14.55;;;5.60;99.90;;;;;;1917433;75;21115;-82
2022/03/09 07:19:10;;;;;;;21.60;14.73;;;5.60;99.90;;;;;;1930475;73;21212;-84
2022/03/09 07:22:02;;;;;;;19.85;13.90;;;5.60;99.90;;;;;;1917411;75;21089;-84
2022/03/09 07:24:53;;;;;;;20.57;13.80;;;5.60;99.90;;;;;;1930894;73;21134;-83
2022/03/09 07:27:45;;;;;;;21.23;14.38;;;5.60;99.90;;;;;;1936887;73;21096;-84
2022/03/09 07:30:37;;;;;;;23.10;16.07;;;5.60;99.90;;;;;;1917489;73;21119;-84
2022/03/09 07:33:28;;;;;;;19.35;13.58;;;5.60;99.90;;;;;;1928059;73;21118;-84
2022/03/09 07:36:22;;;;;;;23.40;14.63;;;5.70;99.90;;;;;;1922273;73;21215;-84
2022/03/09 07:39:14;;;;;;;21.23;14.55;;;5.70;99.90;;;;;;1917866;73;21579;-77
2022/03/09 07:44:43;;;;;;;20.95;14.83;;;5.90;99.90;;;;;;1950533;72;22110;-77
2022/03/09 07:47:53;;;;;;;25.27;15.03;;;5.90;99.90;;;;;;1901561;75;21553;-77
2022/03/09 07:50:45;;;;;;;23.73;14.45;;;6.00;99.90;;;;;;1896293;75;21090;-76
2022/03/09 07:53:42;;;;;;;27.55;14.15;;;6.00;99.90;;;;;;1905842;75;21214;-77
2022/03/09 07:56:30;;;;;;;25.10;15.28;;;6.10;99.90;;;;;;1890204;75;21117;-76
2022/03/09 08:04:39;;;;;;;21.68;14.45;;;6.10;99.90;;;;;;1957432;72;22135;-77
2022/03/09 08:07:50;;;;;;;26.90;14.45;;;6.10;99.90;;;;;;1912836;74;21159;-76
2022/03/09 08:10:42;;;;;;;23.45;14.23;;;6.20;99.90;;;;;;1917370;75;21047;-75
2022/03/09 08:13:34;;;;;;;25.00;13.95;;;6.20;99.90;;;;;;1895438;75;21068;-77
2022/03/09 08:16:27;;;;;;;22.95;13.93;;;6.30;99.90;;;;;;1892924;75;21071;-76
2022/03/09 08:19:19;;;;;;;19.57;12.73;;;6.50;99.90;;;;;;1907081;75;21059;-77
2022/03/09 08:24:48;;;;;;;29.65;13.75;;;6.60;99.90;;;;;;1958327;72;22103;-77
2022/03/09 08:28:00;;;;;;;20.00;13.58;;;6.70;99.90;;;;;;1907808;75;21051;-77
2022/03/09 08:30:52;;;;;;;22.30;14.33;;;6.70;99.90;;;;;;1906641;75;21158;-76
2022/03/09 08:33:44;;;;;;;23.98;14.75;;;6.80;99.90;;;;;;1906876;75;21095;-76
2022/03/09 08:39:18;;;;;;;25.45;14.85;;;6.90;99.90;;;;;;1957782;72;22230;-77
2022/03/09 08:42:29;;;;;;;28.50;15.40;;;6.90;99.90;;;;;;1895566;75;21071;-76
2022/03/09 08:45:21;;;;;;;31.93;15.10;;;7.00;99.90;;;;;;1895415;75;21091;-76
2022/03/09 08:50:51;;;;;;;23.20;13.53;;;7.20;99.90;;;;;;1962130;72;22362;-77
2022/03/09 08:54:01;;;;;;;23.22;13.00;;;7.30;99.90;;;;;;1917441;75;21565;-75
2022/03/09 08:59:33;;;;;;;23.15;14.07;;;7.50;99.90;;;;;;1954229;72;22191;-77
2022/03/09 09:02:43;;;;;;;21.45;13.15;;;7.50;99.90;;;;;;1902610;75;21305;-76
2022/03/09 09:05:35;;;;;;;19.48;12.65;;;7.60;99.90;;;;;;1900154;75;21079;-76
2022/03/09 09:13:43;;;;;;;21.48;12.45;;;7.90;99.90;;;;;;1944960;72;22176;-76
2022/03/09 09:16:53;;;;;;;18.32;12.82;;;8.00;99.90;;;;;;1917458;75;21067;-76
2022/03/09 09:19:44;;;;;;;19.60;13.35;;;8.10;99.90;;;;;;1940341;73;21157;-77
2022/03/09 09:22:37;;;;;;;20.05;12.45;;;8.10;99.90;;;;;;1917448;73;21194;-76
2022/03/09 09:25:30;;;;;;;20.37;12.55;;;8.20;99.90;;;;;;1917641;75;21069;-77
2022/03/09 09:28:22;;;;;;;21.62;11.80;;;8.30;99.90;;;;;;1875800;76;21170;-76
2022/03/09 09:31:14;;;;;;;22.50;12.35;;;8.40;99.90;;;;;;1917558;73;21156;-76
2022/03/09 09:34:06;;;;;;;17.67;11.57;;;8.60;99.90;;;;;;1940147;73;21055;-75
2022/03/09 09:36:59;;;;;;;19.00;11.48;;;8.70;99.90;;;;;;1870177;76;21138;-76
2022/03/09 09:39:51;;;;;;;16.80;11.38;;;8.70;99.90;;;;;;1951267;73;21132;-76
2022/03/09 09:42:43;;;;;;;16.87;11.48;;;8.70;99.90;;;;;;1917496;75;21051;-75
2022/03/09 09:45:37;;;;;;;17.50;12.90;;;8.90;99.90;;;;;;1917548;75;21163;-77
2022/03/09 09:48:29;;;;;;;18.48;12.07;;;8.90;99.90;;;;;;1917532;75;21165;-75
2022/03/09 09:54:02;;;;;;;16.57;11.57;;;9.10;99.90;;;;;;1943957;72;22147;-77
2022/03/09 09:59:53;;;;;;;15.25;11.45;;;9.30;99.90;;;;;;1949142;72;22185;-77
2022/03/09 10:03:03;;;;;;;17.70;12.63;;;9.40;99.90;;;;;;1907831;75;21138;-77
2022/03/09 10:05:56;;;;;;;20.02;12.47;;;9.40;99.90;;;;;;1905636;75;21093;-77
2022/03/09 10:09:02;;;;;;;18.25;11.88;;;9.50;99.90;;;;;;1900460;75;21062;-77
2022/03/09 10:14:46;;;;;;;18.12;12.15;;;9.70;99.90;;;;;;1928871;72;22551;-77
2022/03/09 10:17:59;;;;;;;18.17;12.28;;;9.70;99.90;;;;;;1883739;75;21059;-77
2022/03/09 10:20:52;;;;;;;18.32;12.55;;;9.80;99.90;;;;;;1897494;75;21084;-77
2022/03/09 10:23:58;;;;;;;16.80;12.43;;;9.80;99.90;;;;;;1892117;75;21059;-77
2022/03/09 10:26:50;;;;;;;17.52;12.68;;;10.00;99.90;;;;;;1890444;75;21513;-77
2022/03/09 10:29:42;;;;;;;21.77;13.20;;;10.10;99.90;;;;;;1880923;75;21066;-76
2022/03/09 10:32:56;;;;;;;18.15;13.40;;;10.20;99.90;;;;;;1889165;75;21459;-77
2022/03/09 10:35:50;;;;;;;17.67;13.03;;;10.30;99.90;;;;;;1897738;75;21145;-77
2022/03/09 10:38:44;;;;;;;19.00;13.62;;;10.30;99.90;;;;;;1900523;75;21064;-76
2022/03/09 10:44:14;;;;;;;17.75;12.40;;;10.50;99.90;;;;;;1942938;72;22256;-77
2022/03/09 10:47:33;;;;;;;17.60;11.80;;;10.50;99.90;;;;;;1899290;75;21027;-78
2022/03/09 10:50:28;;;;;;;16.77;11.78;;;10.60;99.90;;;;;;1895533;75;21080;-77
2022/03/09 10:56:00;;;;;;;17.57;11.75;;;10.70;99.90;;;;;;1954764;72;22148;-76
2022/03/09 10:59:12;;;;;;;16.23;11.88;;;10.80;99.90;;;;;;1916367;75;21055;-76
2022/03/09 11:04:46;;;;;;;16.35;11.22;;;10.80;99.90;;;;;;1958255;72;22546;-83
2022/03/09 11:07:56;;;;;;;13.00;9.25;;;10.80;99.90;;;;;;1897719;75;21150;-83
2022/03/09 11:10:48;;;;;;;15.38;10.63;;;10.90;99.90;;;;;;1860540;76;21153;-83
2022/03/09 11:13:40;;;;;;;14.93;10.23;;;11.00;99.90;;;;;;1900420;75;21131;-83
2022/03/09 11:19:12;;;;;;;12.90;9.95;;;11.20;99.90;;;;;;1951441;72;22636;-84
2022/03/09 11:22:22;;;;;;;15.65;10.40;;;11.30;99.90;;;;;;1899315;75;21176;-84
2022/03/09 11:25:14;;;;;;;12.55;9.93;;;11.40;99.90;;;;;;1884675;76;21062;-83
2022/03/09 11:30:56;;;;;;;17.23;10.58;;;11.50;99.90;;;;;;1947377;72;22214;-83
2022/03/09 11:34:06;;;;;;;12.73;9.58;;;11.50;99.90;;;;;;1913616;75;21074;-83
2022/03/09 11:37:03;;;;;;;12.45;9.73;;;11.50;99.90;;;;;;1898383;75;21043;-83
2022/03/09 11:40:58;;;;;;;13.10;9.55;;;11.60;99.90;;;;;;1905102;75;21111;-83
2022/03/09 11:47:22;;;;;;;13.65;10.23;;;11.80;99.90;;;;;;1949788;72;22621;-83
2022/03/09 11:50:35;;;;;;;14.65;10.78;;;11.90;99.90;;;;;;1895465;74;21076;-77
2022/03/09 11:53:40;;;;;;;16.15;10.68;;;12.00;99.90;;;;;;1895238;75;21043;-77
2022/03/09 11:56:41;;;;;;;15.28;10.78;;;12.10;99.90;;;;;;1895618;75;21051;-76
2022/03/09 11:59:33;;;;;;;12.53;8.50;;;12.20;99.90;;;;;;1895735;75;21077;-76
2022/03/09 12:02:39;;;;;;;11.57;8.98;;;12.30;99.90;;;;;;1888277;75;21167;-76
2022/03/09 12:05:42;;;;;;;12.88;8.78;;;12.30;99.90;;;;;;1901164;75;21171;-76
2022/03/09 12:08:47;;;;;;;10.63;8.33;;;12.40;99.90;;;;;;1898060;75;21449;-76
2022/03/09 12:12:16;;;;;;;9.93;7.75;;;12.20;99.90;;;;;;1858875;76;21109;-77
2022/03/09 12:15:10;;;;;;;10.65;7.65;;;12.40;99.90;;;;;;1882980;75;21519;-76
2022/03/09 12:18:01;;;;;;;9.53;6.85;;;12.50;99.90;;;;;;1917495;75;21055;-76
2022/03/09 12:20:53;;;;;;;8.75;7.05;;;12.60;99.90;;;;;;1895325;75;21564;-77
2022/03/09 12:24:39;;;;;;;10.65;6.97;;;12.80;99.90;;;;;;1906172;75;21121;-77
2022/03/09 12:27:30;;;;;;;10.60;6.42;;;12.70;99.90;;;;;;1869784;76;21230;-77
2022/03/09 12:30:48;;;;;;;8.58;6.00;;;12.80;99.90;;;;;;1905880;75;21188;-83
2022/03/09 12:33:43;;;;;;;8.90;6.40;;;12.80;99.90;;;;;;1907091;75;21169;-83
2022/03/09 12:39:14;;;;;;;11.73;6.55;;;12.90;99.90;;;;;;1944362;72;22141;-78
2022/03/09 12:42:24;;;;;;;7.67;5.37;;;13.00;99.90;;;;;;1905295;75;21042;-76
2022/03/09 12:45:16;;;;;;;8.38;6.17;;;13.10;99.90;;;;;;1913143;75;21423;-76
2022/03/09 12:48:08;;;;;;;8.00;5.78;;;13.20;99.90;;;;;;1903471;75;21515;-77
2022/03/09 12:53:46;;;;;;;7.33;5.47;;;13.20;99.90;;;;;;1941667;72;22119;-78
2022/03/09 12:56:56;;;;;;;7.92;5.03;;;13.30;99.90;;;;;;1921507;74;21117;-77
2022/03/09 13:00:01;;;;;;;8.55;5.15;;;13.30;99.90;;;;;;1921954;74;21113;-76
2022/03/09 13:02:54;;;;;;;7.47;4.72;;;13.30;99.90;;;;;;1912666;74;21097;-76
2022/03/09 13:05:48;;;;;;;8.38;5.60;;;13.40;99.90;;;;;;1883513;76;21128;-75
2022/03/09 13:08:40;;;;;;;6.85;4.80;;;13.50;99.90;;;;;;1901669;74;21101;-76
2022/03/09 13:14:16;;;;;;;7.45;4.97;;;13.40;99.90;;;;;;1953317;72;22123;-74
2022/03/09 13:17:26;;;;;;;6.80;4.40;;;13.40;99.90;;;;;;1899155;75;21526;-76
2022/03/09 13:20:20;;;;;;;6.80;4.62;;;13.50;99.90;;;;;;1900161;75;21123;-76
2022/03/09 13:28:57;;;;;;;10.90;4.62;;;13.80;99.90;;;;;;1934871;72;22192;-77
2022/03/09 13:32:07;;;;;;;5.15;4.50;;;13.80;99.90;;;;;;1916760;75;21070;-76
2022/03/09 13:35:00;;;;;;;7.87;4.78;;;13.80;99.90;;;;;;1917552;75;21116;-76
2022/03/09 13:40:47;;;;;;;7.33;4.60;;;13.70;99.90;;;;;;1945263;72;22619;-77
2022/03/09 13:43:57;;;;;;;7.20;4.83;;;13.70;99.90;;;;;;1906649;75;21042;-77
2022/03/09 13:47:02;;;;;;;6.58;5.20;;;13.80;99.90;;;;;;1907056;75;21564;-76
2022/03/09 13:49:54;;;;;;;8.63;5.50;;;13.80;99.90;;;;;;1884730;75;21127;-76
2022/03/09 13:52:46;;;;;;;9.05;5.20;;;13.90;99.90;;;;;;1884567;76;21106;-77
2022/03/09 13:55:43;;;;;;;8.18;4.85;;;13.80;99.90;;;;;;1897991;75;21099;-76
2022/03/09 13:58:42;;;;;;;5.43;4.77;;;13.80;99.90;;;;;;1895810;75;21152;-76
2022/03/09 14:01:36;;;;;;;6.08;5.08;;;13.90;99.90;;;;;;1891540;75;21172;-76
2022/03/09 14:04:28;;;;;;;8.35;4.97;;;13.80;99.90;;;;;;1894574;75;21078;-76
2022/03/09 14:07:21;;;;;;;8.88;4.75;;;13.80;99.90;;;;;;1900192;75;21134;-76
2022/03/09 14:10:20;;;;;;;8.75;4.42;;;13.80;99.90;;;;;;1884632;75;21192;-76
2022/03/09 14:13:15;;;;;;;9.08;4.67;;;13.90;99.90;;;;;;1884826;75;21105;-76
2022/03/09 14:16:06;;;;;;;6.28;5.05;;;13.80;99.90;;;;;;1906767;75;21188;-76
2022/03/09 14:18:59;;;;;;;9.10;5.08;;;13.80;99.90;;;;;;1884729;76;21125;-76
2022/03/09 14:21:53;;;;;;;7.28;4.90;;;13.80;99.90;;;;;;1900967;75;21050;-75
2022/03/09 14:24:45;;;;;;;5.37;4.37;;;13.80;99.90;;;;;;1895853;75;21506;-76
2022/03/09 14:27:37;;;;;;;8.80;4.70;;;13.90;99.90;;;;;;1911808;75;21051;-76
2022/03/09 14:30:29;;;;;;;5.62;3.92;;;14.00;99.90;;;;;;1906740;75;21047;-76
2022/03/09 14:33:21;;;;;;;5.85;4.30;;;14.10;99.90;;;;;;1902233;75;21031;-76
2022/03/09 14:36:13;;;;;;;5.90;4.30;;;14.60;99.90;;;;;;1898739;75;21152;-76
2022/03/09 14:39:06;;;;;;;5.20;4.05;;;15.10;99.90;;;;;;1895069;75;21047;-76
2022/03/09 14:42:06;;;;;;;5.80;3.98;;;15.40;99.90;;;;;;1859221;76;21088;-76
2022/03/09 14:44:58;;;;;;;6.20;4.47;;;15.70;99.90;;;;;;1880574;76;21743;-76
2022/03/09 14:47:58;;;;;;;8.28;4.42;;;16.00;99.90;;;;;;1863484;76;21219;-75
2022/03/09 14:50:47;;;;;;;6.10;3.60;;;16.30;99.90;;;;;;1861019;76;21141;-77
2022/03/09 14:53:39;;;;;;;5.20;4.22;;;16.60;99.90;;;;;;1858149;76;21058;-77
2022/03/09 14:56:32;;;;;;;5.90;4.15;;;16.60;99.90;;;;;;1855576;76;21098;-76
2022/03/09 14:59:26;;;;;;;7.70;4.67;;;16.40;99.90;;;;;;1848253;78;21642;-77
2022/03/09 15:02:17;;;;;;;5.80;3.75;;;15.50;99.90;;;;;;1862558;76;21142;-76
2022/03/09 15:05:11;;;;;;;4.60;4.17;;;15.10;99.90;;;;;;1870582;76;21144;-77
2022/03/09 15:08:02;;;;;;;4.97;3.98;;;14.90;99.90;;;;;;1869271;76;21117;-77
2022/03/09 15:10:54;;;;;;;6.62;3.58;;;14.80;99.90;;;;;;1848240;78;21171;-76
2022/03/09 15:13:46;;;;;;;4.20;3.47;;;14.50;99.90;;;;;;1863585;76;21058;-76
2022/03/09 15:16:37;;;;;;;6.92;4.15;;;14.60;99.90;;;;;;1844114;78;21179;-77
2022/03/09 15:19:29;;;;;;;4.85;3.50;;;14.50;99.90;;;;;;1858752;76;21120;-77
2022/03/09 15:22:21;;;;;;;5.22;3.85;;;14.80;99.90;;;;;;1858382;76;21172;-76
2022/03/09 15:25:15;;;;;;;9.23;3.77;;;15.60;99.90;;;;;;1827286;78;21170;-77
2022/03/09 15:28:07;;;;;;;7.62;3.80;;;16.10;99.90;;;;;;1860391;76;21118;-76
2022/03/09 15:31:00;;;;;;;4.45;3.50;;;16.40;99.90;;;;;;1851009;76;21069;-75
2022/03/09 15:33:52;;;;;;;5.72;3.65;;;16.30;99.90;;;;;;1869042;76;21162;-76
2022/03/09 15:36:45;;;;;;;5.47;3.80;;;16.70;99.90;;;;;;1848509;76;21097;-76
2022/03/09 15:39:37;;;;;;;6.25;3.92;;;17.10;99.70;;;;;;1862909;76;21175;-76
2022/03/09 15:42:28;;;;;;;4.53;3.42;;;17.10;98.90;;;;;;1871825;75;21111;-75
2022/03/09 15:45:20;;;;;;;6.47;3.60;;;17.00;98.50;;;;;;1893656;75;21102;-76
2022/03/09 15:48:12;;;;;;;4.87;3.45;;;17.00;98.70;;;;;;1894650;75;21055;-75
2022/03/09 15:51:04;;;;;;;6.83;3.65;;;16.80;98.40;;;;;;1887573;75;21114;-75
2022/03/09 15:53:58;;;;;;;6.15;3.65;;;17.00;98.50;;;;;;1896161;75;21062;-76
2022/03/09 15:56:49;;;;;;;4.83;3.80;;;17.20;97.90;;;;;;1882732;75;21563;-76
2022/03/09 15:59:40;;;;;;;5.67;3.65;;;17.10;97.80;;;;;;1880829;75;21528;-76
2022/03/09 16:02:32;;;;;;;5.30;3.15;;;16.60;98.20;;;;;;1890407;75;21056;-76
2022/03/09 16:05:24;;;;;;;6.65;3.33;;;16.60;98.30;;;;;;1903041;75;21121;-76
2022/03/09 16:08:16;;;;;;;4.92;3.10;;;16.30;98.60;;;;;;1906155;75;21207;-76
2022/03/09 16:11:07;;;;;;;4.70;3.37;;;16.00;99.10;;;;;;1871842;75;21131;-76
2022/03/09 16:13:59;;;;;;;7.62;3.33;;;16.20;98.90;;;;;;1891456;75;21092;-76
2022/03/09 16:16:51;;;;;;;5.08;3.10;;;15.90;99.20;;;;;;1886628;75;21138;-76
2022/03/09 16:19:44;;;;;;;6.60;3.40;;;16.10;99.00;;;;;;1884912;75;21140;-76
2022/03/09 16:22:38;;;;;;;5.15;3.10;;;16.10;98.80;;;;;;1893793;75;21057;-76
2022/03/09 16:25:30;;;;;;;3.90;3.15;;;15.30;99.60;;;;;;1872033;75;21071;-76
2022/03/09 16:28:23;;;;;;;6.03;3.08;;;14.60;99.90;;;;;;1899878;75;21058;-76
2022/03/09 16:31:19;;;;;;;7.05;3.47;;;14.20;99.90;;;;;;1883319;75;21134;-78
2022/03/09 16:34:10;;;;;;;3.95;2.98;;;14.00;99.90;;;;;;1887414;75;21133;-78
2022/03/09 16:37:03;;;;;;;5.62;2.92;;;13.90;99.90;;;;;;1884749;75;21059;-76
2022/03/09 16:39:54;;;;;;;4.50;3.17;;;13.80;99.90;;;;;;1871861;77;21106;-76
2022/03/09 16:42:48;;;;;;;6.17;4.40;;;13.70;99.90;;;;;;1901575;74;21122;-76
2022/03/09 16:45:40;;;;;;;3.90;2.90;;;13.60;99.90;;;;;;1903814;74;21088;-83
2022/03/09 16:48:32;;;;;;;3.60;2.85;;;13.50;99.90;;;;;;1926185;74;21080;-77
2022/03/09 16:51:23;;;;;;;4.70;3.52;;;13.40;99.90;;;;;;1905249;74;21114;-76
2022/03/09 16:54:16;;;;;;;4.67;3.72;;;13.50;99.90;;;;;;1909252;74;21116;-83
2022/03/09 16:57:07;;;;;;;4.87;3.20;;;13.40;99.90;;;;;;1915275;74;21111;-82
2022/03/09 17:00:00;;;;;;;4.75;3.50;;;13.30;99.90;;;;;;1899309;74;21051;-83
2022/03/09 17:02:52;;;;;;;6.05;3.77;;;13.20;99.90;;;;;;1904332;74;21091;-82
2022/03/09 17:05:44;;;;;;;4.15;3.52;;;13.20;99.90;;;;;;1908477;74;21114;-82
2022/03/09 17:08:36;;;;;;;3.90;3.33;;;13.10;99.90;;;;;;1905847;74;21050;-83
2022/03/09 17:11:27;;;;;;;5.05;4.10;;;13.00;99.90;;;;;;1919567;74;21127;-83
2022/03/09 17:14:19;;;;;;;5.58;3.50;;;13.00;99.90;;;;;;1915778;74;21120;-83
2022/03/09 17:17:10;;;;;;;4.28;3.47;;;13.00;99.90;;;;;;1911663;74;21101;-77
2022/03/09 17:20:03;;;;;;;6.92;3.67;;;13.00;99.90;;;;;;1906489;74;21188;-82
2022/03/09 17:22:54;;;;;;;5.67;3.72;;;12.90;99.90;;;;;;1896300;74;22109;-82
2022/03/09 17:25:46;;;;;;;5.70;3.72;;;12.90;99.90;;;;;;1915622;74;21227;-83
2022/03/09 17:28:38;;;;;;;4.17;3.30;;;12.90;99.90;;;;;;1893555;74;21066;-83
2022/03/09 17:31:32;;;;;;;5.97;4.22;;;12.90;99.90;;;;;;1908995;74;21059;-83
2022/03/09 17:34:25;;;;;;;3.85;3.27;;;12.90;99.90;;;;;;1916155;74;21105;-83
2022/03/09 17:37:16;;;;;;;5.00;4.12;;;12.80;99.90;;;;;;1893414;74;21052;-76
2022/03/09 17:40:11;;;;;;;6.33;3.60;;;12.80;99.90;;;;;;1915218;74;21055;-77
2022/03/09 17:43:03;;;;;;;5.50;3.80;;;12.70;99.90;;;;;;1888689;74;21080;-77
2022/03/09 17:45:54;;;;;;;4.40;3.50;;;12.50;99.90;;;;;;1897773;75;21091;-76
2022/03/09 17:48:46;;;;;;;5.20;3.80;;;12.60;99.90;;;;;;1886736;75;21122;-78
2022/03/09 17:51:38;;;;;;;4.75;3.77;;;12.60;99.90;;;;;;1905861;75;21585;-77
2022/03/09 17:54:31;;;;;;;5.17;4.00;;;12.50;99.90;;;;;;1884282;75;21064;-76